Time;durP1;ratioP1;P1;durP2;ratioP2;P2;SDS_P1;SDS_P2;PMS_P1;PMS_P2;Temp;Humidity;BMP_temperature;BMP_pressure;BME280_temperature;BME280_humidity;BME280_pressure;Samples;Min_cycle;Max_cycle;Signal;HPM_P1;HPM_P2
2022/10/13 00:00:12;;;;;;;15.15;2.90;;;14.20;99.90;;;;;;5015879;28;20486;-58
2022/10/13 00:02:39;;;;;;;11.60;2.70;;;14.20;99.90;;;;;;5015671;28;20053;-59
2022/10/13 00:05:06;;;;;;;7.43;2.72;;;14.20;99.90;;;;;;5015175;28;20121;-60
2022/10/13 00:07:33;;;;;;;11.10;3.00;;;14.20;99.90;;;;;;5015841;28;20469;-61
2022/10/13 00:09:59;;;;;;;12.50;3.30;;;14.20;99.90;;;;;;5015853;28;20112;-58
2022/10/13 00:12:26;;;;;;;14.65;3.15;;;14.20;99.90;;;;;;5016139;28;20084;-56
2022/10/13 00:14:53;;;;;;;8.57;2.60;;;14.20;99.90;;;;;;5015347;28;20073;-60
2022/10/13 00:17:19;;;;;;;11.02;3.28;;;14.20;99.90;;;;;;5015467;28;20129;-59
2022/10/13 00:19:46;;;;;;;7.35;2.50;;;14.20;99.90;;;;;;5015526;28;20184;-58
2022/10/13 00:22:13;;;;;;;7.25;2.58;;;14.20;99.90;;;;;;5015246;28;20050;-55
2022/10/13 00:24:42;;;;;;;7.97;2.38;;;14.20;99.90;;;;;;5015262;28;20045;-58
2022/10/13 00:27:11;;;;;;;6.93;2.20;;;14.20;99.90;;;;;;5015364;28;20049;-58
2022/10/13 00:29:39;;;;;;;7.78;2.00;;;14.10;99.90;;;;;;5014987;28;20099;-56
2022/10/13 00:32:05;;;;;;;5.43;2.15;;;14.10;99.90;;;;;;5015336;28;20124;-56
2022/10/13 00:34:32;;;;;;;8.07;2.33;;;14.10;99.90;;;;;;5015268;28;20050;-58
2022/10/13 00:36:59;;;;;;;6.70;1.92;;;14.10;99.90;;;;;;5015075;28;20462;-57
2022/10/13 00:39:25;;;;;;;7.40;2.10;;;14.10;99.90;;;;;;5015066;28;20065;-52
2022/10/13 00:41:53;;;;;;;7.32;1.90;;;14.00;99.90;;;;;;5015115;28;20522;-58
2022/10/13 00:44:20;;;;;;;5.63;2.17;;;14.00;99.90;;;;;;5014997;28;20045;-55
2022/10/13 00:46:46;;;;;;;5.15;1.95;;;14.00;99.90;;;;;;5015125;28;20069;-57
2022/10/13 00:49:13;;;;;;;5.70;2.35;;;14.00;99.90;;;;;;5014894;28;20061;-58
2022/10/13 00:51:45;;;;;;;6.13;1.98;;;14.00;99.90;;;;;;5014943;28;20145;-59
2022/10/13 00:54:11;;;;;;;4.88;2.22;;;14.00;99.90;;;;;;5014695;28;20047;-54
2022/10/13 00:56:38;;;;;;;8.20;2.40;;;14.00;99.90;;;;;;5014790;28;20422;-55
2022/10/13 00:59:05;;;;;;;8.10;2.28;;;14.00;99.90;;;;;;5014525;28;20096;-63
2022/10/13 01:01:31;;;;;;;5.63;2.20;;;14.00;99.90;;;;;;5014803;28;20084;-58
2022/10/13 01:03:58;;;;;;;5.85;1.98;;;13.90;99.90;;;;;;5014810;28;20069;-58
2022/10/13 01:06:25;;;;;;;4.18;1.67;;;13.90;99.90;;;;;;5014707;28;20413;-57
2022/10/13 01:08:53;;;;;;;3.92;1.80;;;13.90;99.90;;;;;;5014375;28;20042;-59
2022/10/13 01:11:21;;;;;;;7.65;2.05;;;13.90;99.90;;;;;;5014826;28;20049;-59
2022/10/13 01:13:48;;;;;;;5.40;2.10;;;14.00;99.90;;;;;;5014942;28;20100;-59
2022/10/13 01:16:15;;;;;;;6.10;1.80;;;13.90;99.90;;;;;;5013896;28;20448;-52
2022/10/13 01:18:41;;;;;;;3.53;1.48;;;14.00;99.90;;;;;;5014686;28;20404;-58
2022/10/13 01:21:08;;;;;;;4.70;1.65;;;13.90;99.90;;;;;;5014334;28;20053;-58
2022/10/13 01:23:35;;;;;;;4.97;1.70;;;13.90;99.90;;;;;;5014036;28;20485;-53
2022/10/13 01:26:02;;;;;;;3.40;1.70;;;13.90;99.90;;;;;;5014698;28;20042;-56
2022/10/13 01:28:28;;;;;;;3.17;1.50;;;13.90;99.90;;;;;;5013916;28;20477;-57
2022/10/13 01:30:55;;;;;;;5.13;1.40;;;13.90;99.90;;;;;;5014237;28;20072;-58
2022/10/13 01:33:22;;;;;;;5.88;1.63;;;13.90;99.90;;;;;;5014323;28;20052;-58
2022/10/13 01:35:48;;;;;;;5.03;2.15;;;13.90;99.90;;;;;;5013943;28;20038;-58
2022/10/13 01:38:15;;;;;;;3.25;1.35;;;13.90;99.90;;;;;;5014508;28;20130;-58
2022/10/13 01:40:42;;;;;;;6.43;1.77;;;13.80;99.90;;;;;;5014580;28;20536;-58
2022/10/13 01:43:09;;;;;;;6.05;1.60;;;13.90;99.90;;;;;;5013828;28;20125;-54
2022/10/13 01:45:35;;;;;;;3.22;1.30;;;13.90;99.90;;;;;;5013821;28;20448;-56
2022/10/13 01:48:02;;;;;;;3.92;1.35;;;13.80;99.90;;;;;;5014192;28;20072;-55
2022/10/13 01:50:29;;;;;;;5.07;1.55;;;13.80;99.90;;;;;;5013884;28;20037;-56
2022/10/13 01:52:55;;;;;;;4.32;1.20;;;13.80;99.90;;;;;;5014396;28;20466;-57
2022/10/13 01:55:22;;;;;;;4.97;1.30;;;13.80;99.90;;;;;;5014244;28;20046;-57
2022/10/13 01:57:49;;;;;;;3.58;1.40;;;13.80;99.90;;;;;;5013943;28;20069;-58
2022/10/13 02:00:16;;;;;;;3.55;0.98;;;13.80;99.90;;;;;;5013923;28;20046;-57
2022/10/13 02:02:42;;;;;;;4.00;1.33;;;13.80;99.90;;;;;;5013969;28;20045;-57
2022/10/13 02:05:09;;;;;;;2.97;1.17;;;13.80;99.90;;;;;;5013556;28;20050;-58
2022/10/13 02:07:36;;;;;;;2.95;0.90;;;13.80;99.90;;;;;;4996826;28;20064;-57
2022/10/13 02:10:03;;;;;;;3.22;1.00;;;13.80;99.90;;;;;;5014211;28;20080;-54
2022/10/13 02:12:30;;;;;;;3.58;1.27;;;13.80;99.90;;;;;;5013612;28;20038;-57
2022/10/13 02:14:56;;;;;;;4.50;1.38;;;13.80;99.90;;;;;;5013668;28;20479;-59
2022/10/13 02:17:25;;;;;;;3.33;1.05;;;13.80;99.90;;;;;;4996223;28;20038;-57
2022/10/13 02:19:51;;;;;;;2.60;1.00;;;13.80;99.90;;;;;;5013576;28;20042;-57
2022/10/13 02:22:18;;;;;;;4.50;1.33;;;13.80;99.90;;;;;;5013607;28;20078;-58
2022/10/13 02:24:45;;;;;;;2.63;1.20;;;13.80;99.90;;;;;;5013393;28;20046;-60
2022/10/13 02:27:12;;;;;;;3.50;1.00;;;13.80;99.90;;;;;;5013785;28;20521;-58
2022/10/13 02:29:39;;;;;;;4.75;1.27;;;13.80;99.90;;;;;;5017857;28;20073;-59
2022/10/13 02:32:05;;;;;;;4.72;1.30;;;13.80;99.90;;;;;;5017271;28;20513;-57
2022/10/13 02:34:32;;;;;;;3.78;1.63;;;13.80;99.90;;;;;;5017222;28;20042;-58
2022/10/13 02:36:59;;;;;;;3.22;1.10;;;13.70;99.90;;;;;;5017855;28;20113;-56
2022/10/13 02:39:25;;;;;;;3.25;1.20;;;13.70;99.90;;;;;;5017136;28;20125;-59
2022/10/13 02:41:52;;;;;;;3.97;1.35;;;13.70;99.90;;;;;;5017228;28;20048;-56
2022/10/13 02:44:19;;;;;;;3.58;1.20;;;13.70;99.90;;;;;;5016979;28;20125;-57
2022/10/13 02:46:46;;;;;;;3.45;1.27;;;13.70;99.90;;;;;;5017761;28;20038;-58
2022/10/13 02:49:13;;;;;;;2.78;1.20;;;13.70;99.90;;;;;;5017044;28;20038;-57
2022/10/13 02:51:40;;;;;;;3.72;1.30;;;13.70;99.90;;;;;;5017374;28;20537;-59
2022/10/13 02:54:07;;;;;;;2.55;1.10;;;13.70;99.90;;;;;;5017122;28;20046;-57
2022/10/13 02:56:33;;;;;;;3.63;1.58;;;13.70;99.90;;;;;;5017085;28;20130;-56
2022/10/13 02:59:00;;;;;;;2.92;1.10;;;13.70;99.90;;;;;;5016854;28;20073;-57
2022/10/13 03:01:27;;;;;;;2.28;1.33;;;13.70;99.90;;;;;;5016738;28;20066;-59
2022/10/13 03:03:53;;;;;;;4.18;1.65;;;13.60;99.90;;;;;;5017135;28;20118;-57
2022/10/13 03:06:20;;;;;;;3.53;1.45;;;13.60;99.90;;;;;;5016857;28;20041;-60
2022/10/13 03:08:47;;;;;;;3.47;1.38;;;13.70;99.90;;;;;;5016900;28;20088;-58
2022/10/13 03:11:13;;;;;;;3.38;1.50;;;13.60;99.90;;;;;;5016896;28;20465;-58
2022/10/13 03:13:40;;;;;;;4.75;1.52;;;13.60;99.90;;;;;;5016917;28;20065;-58
2022/10/13 03:16:07;;;;;;;6.55;1.80;;;13.60;99.90;;;;;;5016684;28;20037;-54
2022/10/13 03:18:33;;;;;;;3.78;1.60;;;13.60;99.90;;;;;;5016365;28;20128;-57
2022/10/13 03:21:00;;;;;;;3.05;1.60;;;13.70;99.90;;;;;;5016687;28;20042;-55
2022/10/13 03:23:27;;;;;;;3.17;1.70;;;13.70;99.90;;;;;;5016632;28;20081;-58
2022/10/13 03:25:54;;;;;;;3.95;1.60;;;13.70;99.90;;;;;;5016502;28;20485;-57
2022/10/13 03:28:20;;;;;;;3.20;1.50;;;13.70;99.90;;;;;;4998847;28;20057;-58
2022/10/13 03:30:49;;;;;;;4.65;1.70;;;13.70;99.90;;;;;;5016704;28;20477;-58
2022/10/13 03:33:16;;;;;;;2.58;1.50;;;13.70;99.90;;;;;;5016384;28;20441;-57
2022/10/13 03:35:43;;;;;;;3.70;1.98;;;13.70;99.90;;;;;;5016047;28;20053;-58
2022/10/13 03:38:09;;;;;;;3.47;1.80;;;13.70;99.90;;;;;;5015908;28;20042;-56
2022/10/13 03:40:37;;;;;;;5.25;2.03;;;13.70;99.90;;;;;;5016114;28;20049;-58
2022/10/13 03:43:04;;;;;;;5.00;2.08;;;13.60;99.90;;;;;;5016572;28;20042;-56
2022/10/13 03:45:31;;;;;;;2.60;1.60;;;13.70;99.90;;;;;;5016044;28;20049;-56
2022/10/13 03:47:57;;;;;;;5.82;2.38;;;13.60;99.90;;;;;;5015865;28;20489;-59
2022/10/13 03:50:24;;;;;;;4.38;2.00;;;13.70;99.90;;;;;;5016453;28;20074;-58
2022/10/13 03:52:51;;;;;;;3.65;1.90;;;13.70;99.90;;;;;;5015919;28;20129;-55
2022/10/13 03:55:18;;;;;;;4.07;2.10;;;13.70;99.90;;;;;;5016236;28;20042;-60
2022/10/13 03:57:45;;;;;;;4.32;1.75;;;13.70;99.90;;;;;;5015720;28;20124;-57
2022/10/13 04:00:12;;;;;;;3.10;1.85;;;13.60;99.90;;;;;;5016012;28;20054;-58
2022/10/13 04:02:38;;;;;;;4.55;1.80;;;13.60;99.90;;;;;;5015911;28;20049;-55
2022/10/13 04:05:05;;;;;;;3.67;1.88;;;13.70;99.90;;;;;;5016025;28;20041;-58
2022/10/13 04:07:32;;;;;;;4.97;2.40;;;13.60;99.90;;;;;;5015530;28;20065;-55
2022/10/13 04:10:03;;;;;;;4.55;2.50;;;13.60;99.90;;;;;;5015459;28;20037;-59
2022/10/13 04:12:35;;;;;;;3.60;2.10;;;13.60;99.90;;;;;;5015711;28;20448;-58
2022/10/13 04:15:01;;;;;;;3.95;2.00;;;13.60;99.90;;;;;;5015490;28;20042;-55
2022/10/13 04:17:28;;;;;;;5.07;2.20;;;13.60;99.90;;;;;;5015733;28;20069;-56
2022/10/13 04:19:55;;;;;;;4.05;2.30;;;13.60;99.90;;;;;;5015721;28;20132;-55
2022/10/13 04:22:21;;;;;;;4.43;2.28;;;13.60;99.90;;;;;;5015517;28;20042;-57
2022/10/13 04:24:48;;;;;;;4.53;3.03;;;13.60;99.90;;;;;;5015392;28;20440;-58
2022/10/13 04:27:17;;;;;;;4.68;2.92;;;13.60;99.90;;;;;;5015802;28;20140;-59
2022/10/13 04:29:44;;;;;;;4.22;2.40;;;13.60;99.90;;;;;;5015762;28;20049;-59
2022/10/13 04:32:11;;;;;;;4.75;2.60;;;13.60;99.90;;;;;;5015290;28;20046;-55
2022/10/13 04:34:38;;;;;;;3.60;2.38;;;13.50;99.90;;;;;;5015679;28;20419;-58
2022/10/13 04:37:04;;;;;;;5.10;2.55;;;13.50;99.90;;;;;;5014907;28;20042;-52
2022/10/13 04:39:31;;;;;;;4.03;3.05;;;13.50;99.90;;;;;;5015067;28;20137;-56
2022/10/13 04:41:58;;;;;;;5.57;2.95;;;13.50;99.90;;;;;;5015062;28;20117;-59
2022/10/13 04:44:24;;;;;;;4.32;2.70;;;13.50;99.90;;;;;;5014751;28;20433;-60
2022/10/13 04:46:51;;;;;;;4.63;2.88;;;13.60;99.90;;;;;;5015153;28;20084;-56
2022/10/13 04:49:18;;;;;;;5.18;3.00;;;13.60;99.90;;;;;;5014854;28;20041;-59
2022/10/13 04:51:45;;;;;;;4.40;2.83;;;13.50;99.90;;;;;;5014538;28;20470;-60
2022/10/13 04:54:11;;;;;;;4.60;3.08;;;13.60;99.90;;;;;;5015197;28;20048;-58
2022/10/13 04:56:38;;;;;;;5.10;2.90;;;13.50;99.90;;;;;;5015170;28;20092;-58
2022/10/13 04:59:05;;;;;;;7.70;3.30;;;13.50;99.90;;;;;;5014667;28;20049;-59
2022/10/13 05:01:31;;;;;;;4.97;2.85;;;13.50;99.90;;;;;;5014977;28;20442;-59
2022/10/13 05:03:58;;;;;;;5.05;3.22;;;13.50;99.90;;;;;;5015165;28;20044;-58
2022/10/13 05:06:25;;;;;;;5.32;3.50;;;13.50;99.90;;;;;;4997324;28;20041;-59
2022/10/13 05:08:54;;;;;;;6.05;3.45;;;13.50;99.90;;;;;;5015171;28;20042;-56
2022/10/13 05:11:21;;;;;;;5.00;3.70;;;13.50;99.90;;;;;;5014532;28;20049;-60
2022/10/13 05:13:48;;;;;;;4.60;3.30;;;13.50;99.90;;;;;;5014637;28;20042;-57
2022/10/13 05:16:15;;;;;;;3.72;3.20;;;13.50;99.90;;;;;;5014669;28;20073;-60
2022/10/13 05:18:41;;;;;;;5.80;3.92;;;13.50;99.90;;;;;;5014768;28;20045;-57
2022/10/13 05:21:08;;;;;;;10.30;5.30;;;13.50;99.90;;;;;;5014589;28;20053;-57
2022/10/13 05:23:36;;;;;;;6.68;4.47;;;13.50;99.90;;;;;;5014333;28;20045;-59
2022/10/13 05:26:02;;;;;;;6.90;4.80;;;13.50;99.90;;;;;;5014040;28;20046;-56
2022/10/13 05:28:29;;;;;;;5.80;4.20;;;13.50;99.90;;;;;;5014200;28;20082;-56
2022/10/13 05:30:56;;;;;;;4.90;4.28;;;13.50;99.90;;;;;;5014333;28;20042;-58
2022/10/13 05:33:23;;;;;;;5.00;4.10;;;13.50;99.90;;;;;;5014321;28;20065;-57
2022/10/13 05:35:49;;;;;;;5.75;4.35;;;13.50;99.90;;;;;;5014176;28;20466;-59
2022/10/13 05:38:16;;;;;;;7.13;4.68;;;13.50;99.90;;;;;;4996704;28;20053;-59
2022/10/13 05:40:48;;;;;;;5.88;4.43;;;13.50;99.90;;;;;;5014123;28;20539;-54
2022/10/13 05:43:15;;;;;;;7.43;4.50;;;13.50;99.90;;;;;;5013727;28;20500;-58
2022/10/13 05:45:42;;;;;;;6.97;4.95;;;13.50;99.90;;;;;;5013762;28;20049;-57
2022/10/13 05:48:08;;;;;;;7.72;4.80;;;13.50;99.90;;;;;;5013861;28;20046;-59
2022/10/13 05:50:36;;;;;;;7.35;5.28;;;13.50;99.90;;;;;;5013551;28;20378;-59
2022/10/13 05:53:02;;;;;;;7.72;5.25;;;13.50;99.90;;;;;;4995376;28;20109;-59
2022/10/13 05:55:29;;;;;;;7.80;5.43;;;13.50;99.90;;;;;;5013397;28;20393;-58
2022/10/13 05:57:56;;;;;;;7.00;5.53;;;13.50;99.90;;;;;;5012790;28;20046;-56
2022/10/13 06:00:23;;;;;;;8.68;5.38;;;13.50;99.90;;;;;;5013986;28;20092;-57
2022/10/13 06:02:53;;;;;;;7.72;5.60;;;13.50;99.90;;;;;;5014159;28;20058;-55
2022/10/13 06:05:20;;;;;;;8.93;6.30;;;13.50;99.90;;;;;;5013325;28;20069;-58
2022/10/13 06:07:51;;;;;;;8.02;5.78;;;13.50;99.90;;;;;;5030749;28;20046;-59
2022/10/13 06:10:17;;;;;;;6.25;5.35;;;13.50;99.90;;;;;;5035893;28;20088;-59
2022/10/13 06:12:44;;;;;;;9.25;6.20;;;13.50;99.90;;;;;;5032860;28;20477;-59
2022/10/13 06:15:11;;;;;;;7.50;5.00;;;13.50;99.90;;;;;;5033685;28;20370;-58
2022/10/13 06:17:38;;;;;;;6.35;5.07;;;13.50;99.90;;;;;;5033670;28;20520;-59
2022/10/13 06:20:05;;;;;;;6.43;5.70;;;13.50;99.90;;;;;;5032792;28;20108;-57
2022/10/13 06:22:32;;;;;;;6.95;5.43;;;13.50;99.90;;;;;;5031996;28;20049;-59
2022/10/13 06:24:58;;;;;;;9.50;5.65;;;13.50;99.90;;;;;;5032907;28;20121;-59
2022/10/13 06:27:25;;;;;;;8.88;4.90;;;13.50;99.90;;;;;;5033168;28;20053;-58
2022/10/13 06:29:52;;;;;;;6.43;5.60;;;13.50;99.90;;;;;;5033545;28;20076;-58
2022/10/13 06:32:18;;;;;;;5.50;4.90;;;13.50;99.90;;;;;;5033816;28;20075;-59
2022/10/13 06:34:46;;;;;;;7.20;4.70;;;13.50;99.90;;;;;;5032984;28;20404;-61
2022/10/13 06:37:12;;;;;;;6.88;4.82;;;13.50;99.90;;;;;;5015552;28;20492;-61
2022/10/13 06:39:39;;;;;;;7.35;4.78;;;13.50;99.90;;;;;;5015760;28;20373;-60
2022/10/13 06:42:06;;;;;;;6.30;5.22;;;13.50;99.90;;;;;;5033312;28;20125;-60
2022/10/13 06:44:36;;;;;;;6.78;5.55;;;13.60;99.90;;;;;;5015134;28;20037;-59
2022/10/13 06:47:04;;;;;;;7.20;5.47;;;13.60;99.90;;;;;;5033078;28;20116;-57
2022/10/13 06:49:30;;;;;;;9.57;6.00;;;13.60;99.90;;;;;;5033213;28;20495;-58
2022/10/13 06:51:57;;;;;;;7.00;5.50;;;13.60;99.90;;;;;;5015793;28;20041;-61
2022/10/13 06:54:24;;;;;;;7.65;5.53;;;13.60;99.90;;;;;;5032940;28;20037;-60
2022/10/13 06:56:51;;;;;;;5.97;5.35;;;13.60;99.90;;;;;;5033069;28;20054;-60
2022/10/13 06:59:18;;;;;;;6.78;6.00;;;13.60;99.90;;;;;;5033584;28;20396;-57
2022/10/13 07:01:44;;;;;;;7.75;6.55;;;13.60;99.90;;;;;;5032746;28;20052;-60
2022/10/13 07:04:11;;;;;;;8.80;6.00;;;13.70;99.90;;;;;;5032951;28;20041;-59
2022/10/13 07:06:38;;;;;;;6.60;5.60;;;13.60;99.90;;;;;;5032747;28;20473;-60
2022/10/13 07:09:07;;;;;;;8.07;6.60;;;13.60;99.90;;;;;;5033179;28;20113;-61
2022/10/13 07:11:34;;;;;;;6.70;5.55;;;13.60;99.90;;;;;;5033324;28;20041;-58
2022/10/13 07:14:01;;;;;;;10.73;6.68;;;13.60;99.90;;;;;;5034420;28;20042;-59
2022/10/13 07:16:28;;;;;;;7.05;6.35;;;13.60;99.90;;;;;;5036459;28;20501;-60
2022/10/13 07:18:55;;;;;;;8.60;6.97;;;13.70;99.90;;;;;;5036522;28;20073;-58
2022/10/13 07:21:22;;;;;;;7.60;6.82;;;13.70;99.90;;;;;;5035975;28;20523;-61
2022/10/13 07:23:48;;;;;;;8.25;7.45;;;13.70;99.90;;;;;;5036255;28;20045;-58
2022/10/13 07:26:15;;;;;;;8.02;7.18;;;13.70;99.90;;;;;;5036660;28;20041;-57
2022/10/13 07:28:42;;;;;;;9.35;7.28;;;13.70;99.90;;;;;;5035760;28;20045;-59
2022/10/13 07:31:10;;;;;;;11.65;7.50;;;13.70;99.90;;;;;;5036191;28;20045;-55
2022/10/13 07:33:37;;;;;;;8.38;7.45;;;13.70;99.90;;;;;;5035787;28;20036;-58
2022/10/13 07:36:04;;;;;;;11.13;8.13;;;13.60;99.90;;;;;;5036015;28;20510;-56
2022/10/13 07:38:30;;;;;;;10.13;7.63;;;13.50;99.90;;;;;;5035007;28;20129;-55
2022/10/13 07:40:57;;;;;;;10.85;7.93;;;13.50;99.90;;;;;;5034851;28;20453;-59
2022/10/13 07:43:24;;;;;;;9.75;8.05;;;13.50;99.90;;;;;;5034351;28;20042;-57
2022/10/13 07:45:52;;;;;;;8.90;7.45;;;13.40;99.90;;;;;;5034274;28;20045;-58
2022/10/13 07:48:20;;;;;;;9.38;8.32;;;13.50;99.90;;;;;;5034604;28;20403;-58
2022/10/13 07:50:53;;;;;;;11.27;10.05;;;13.50;99.90;;;;;;5034571;28;20069;-59
2022/10/13 07:53:19;;;;;;;13.77;9.48;;;13.50;99.90;;;;;;5034919;28;20120;-60
2022/10/13 07:55:46;;;;;;;16.58;9.88;;;13.50;99.90;;;;;;5035957;28;20041;-56
2022/10/13 07:58:13;;;;;;;14.30;9.52;;;13.50;99.90;;;;;;5017579;28;20144;-57
2022/10/13 08:00:40;;;;;;;11.85;9.45;;;13.50;99.90;;;;;;5035586;28;20229;-57
2022/10/13 08:03:06;;;;;;;10.98;9.60;;;13.50;99.90;;;;;;5035336;28;20045;-57
2022/10/13 08:05:33;;;;;;;12.13;9.68;;;13.60;99.90;;;;;;5035348;28;20038;-60
2022/10/13 08:08:01;;;;;;;13.15;10.00;;;13.60;99.90;;;;;;5035345;28;20049;-59
2022/10/13 08:10:28;;;;;;;14.52;9.73;;;13.70;99.90;;;;;;5035627;28;20038;-55
2022/10/13 08:12:55;;;;;;;21.73;10.95;;;13.70;99.90;;;;;;5035162;28;20040;-57
2022/10/13 08:15:22;;;;;;;23.40;11.07;;;13.80;99.90;;;;;;5017711;28;20069;-59
2022/10/13 08:17:48;;;;;;;15.05;11.00;;;13.80;99.90;;;;;;5035316;28;20084;-58
2022/10/13 08:20:16;;;;;;;12.73;10.13;;;13.90;99.90;;;;;;5035609;28;20121;-58
2022/10/13 08:22:42;;;;;;;12.00;10.27;;;13.90;99.90;;;;;;5035568;28;20069;-57
2022/10/13 08:25:09;;;;;;;11.73;10.15;;;14.00;99.90;;;;;;5034635;28;20136;-60
2022/10/13 08:27:36;;;;;;;16.25;10.38;;;14.00;99.90;;;;;;5034660;28;20055;-58
2022/10/13 08:30:16;;;;;;;11.48;9.60;;;14.10;99.90;;;;;;5034834;28;20033;-56
2022/10/13 08:32:43;;;;;;;15.23;10.07;;;14.10;99.90;;;;;;5035192;28;20048;-58
2022/10/13 08:35:10;;;;;;;18.30;9.73;;;14.20;99.90;;;;;;5034807;28;20136;-57
2022/10/13 08:37:37;;;;;;;13.38;9.80;;;14.30;99.90;;;;;;5034864;28;20049;-60
2022/10/13 08:40:04;;;;;;;14.45;7.63;;;14.40;99.90;;;;;;5035297;28;20052;-60
2022/10/13 08:42:31;;;;;;;10.02;7.68;;;14.40;99.90;;;;;;5034789;28;20132;-59
2022/10/13 08:44:57;;;;;;;8.30;6.95;;;14.50;99.90;;;;;;5034859;28;20041;-59
2022/10/13 08:47:46;;;;;;;8.70;7.32;;;14.70;99.90;;;;;;5035301;28;20052;-60
2022/10/13 08:50:13;;;;;;;8.00;7.20;;;14.70;99.90;;;;;;5034343;28;20091;-57
2022/10/13 08:52:41;;;;;;;8.57;5.88;;;14.70;99.90;;;;;;5034716;28;20042;-57
2022/10/13 08:55:07;;;;;;;11.73;5.85;;;14.80;99.90;;;;;;5017539;28;20041;-61
2022/10/13 08:57:34;;;;;;;8.15;5.32;;;14.90;99.90;;;;;;5034457;28;20124;-59
2022/10/13 09:00:02;;;;;;;12.20;5.32;;;14.90;99.90;;;;;;5034501;28;20045;-58
2022/10/13 09:02:28;;;;;;;8.05;4.97;;;14.90;99.90;;;;;;5034479;28;20107;-57
2022/10/13 09:04:55;;;;;;;5.32;4.47;;;14.90;99.90;;;;;;5034202;28;20091;-62
2022/10/13 09:07:22;;;;;;;14.27;5.43;;;15.00;99.90;;;;;;5034118;28;20076;-60
2022/10/13 09:09:49;;;;;;;8.70;4.38;;;15.00;99.90;;;;;;5034372;28;20044;-60
2022/10/13 09:12:20;;;;;;;5.70;3.90;;;15.00;99.90;;;;;;5034371;28;20103;-59
2022/10/13 09:14:48;;;;;;;5.80;3.88;;;15.00;99.90;;;;;;5034213;28;20065;-58
2022/10/13 09:17:14;;;;;;;6.97;4.35;;;15.00;99.90;;;;;;5034449;28;20120;-56
2022/10/13 09:19:41;;;;;;;5.47;3.67;;;15.10;99.90;;;;;;5016136;28;20088;-59
2022/10/13 09:22:11;;;;;;;7.45;3.72;;;15.10;99.90;;;;;;5016869;28;20045;-59
2022/10/13 09:24:37;;;;;;;6.45;3.90;;;15.20;99.90;;;;;;5016267;28;20080;-57
2022/10/13 09:27:04;;;;;;;6.60;3.97;;;15.20;99.90;;;;;;5033593;28;20045;-55
2022/10/13 09:29:31;;;;;;;5.68;3.65;;;15.20;99.90;;;;;;5033906;28;20137;-59
2022/10/13 09:31:59;;;;;;;4.90;2.85;;;15.20;99.90;;;;;;5033846;28;20072;-55
2022/10/13 09:34:27;;;;;;;5.18;3.10;;;15.20;99.90;;;;;;5033690;28;20061;-59
2022/10/13 09:36:57;;;;;;;4.85;3.00;;;15.20;99.90;;;;;;5033310;28;20061;-57
2022/10/13 09:39:23;;;;;;;4.97;3.03;;;15.10;99.90;;;;;;5033935;28;20045;-57
2022/10/13 09:41:50;;;;;;;5.93;3.38;;;15.10;99.90;;;;;;5033630;28;20103;-58
2022/10/13 09:44:17;;;;;;;5.53;2.90;;;15.10;99.90;;;;;;5033447;28;20496;-57
2022/10/13 09:46:44;;;;;;;6.00;3.03;;;15.10;99.90;;;;;;5033576;28;20076;-59
2022/10/13 09:49:10;;;;;;;5.38;3.00;;;15.20;99.90;;;;;;5033792;28;20068;-58
2022/10/13 09:51:37;;;;;;;5.05;3.58;;;15.20;99.90;;;;;;5033399;28;20076;-59
2022/10/13 09:54:17;;;;;;;5.53;2.85;;;15.20;99.90;;;;;;5033666;28;20473;-59
2022/10/13 09:56:43;;;;;;;5.78;2.88;;;15.30;99.90;;;;;;5033860;28;20503;-57
2022/10/13 09:59:10;;;;;;;4.60;2.30;;;15.30;99.90;;;;;;5033273;28;20076;-60
2022/10/13 10:01:37;;;;;;;4.55;2.10;;;15.40;99.90;;;;;;5033683;28;20432;-60
2022/10/13 10:04:03;;;;;;;4.65;1.98;;;15.50;99.90;;;;;;5033058;28;20056;-60
2022/10/13 10:06:30;;;;;;;3.95;1.90;;;15.50;99.90;;;;;;5033423;28;20052;-57
2022/10/13 10:08:57;;;;;;;5.70;2.10;;;15.60;99.90;;;;;;5033344;28;20041;-61
2022/10/13 10:11:29;;;;;;;4.97;2.38;;;15.70;99.90;;;;;;5017239;28;20041;-60
2022/10/13 10:13:56;;;;;;;3.10;1.80;;;15.70;99.90;;;;;;5033581;28;20068;-59
2022/10/13 10:16:29;;;;;;;3.45;2.50;;;15.70;99.90;;;;;;5033274;28;20045;-59
2022/10/13 10:18:55;;;;;;;4.18;2.17;;;15.80;99.90;;;;;;5033310;28;20485;-58
2022/10/13 10:21:24;;;;;;;4.07;2.30;;;15.80;99.90;;;;;;5033850;28;20100;-59
2022/10/13 10:23:51;;;;;;;4.30;1.85;;;15.90;99.90;;;;;;5015934;28;20095;-60
2022/10/13 10:26:18;;;;;;;5.25;1.85;;;16.00;99.90;;;;;;5032859;28;20458;-56
2022/10/13 10:28:50;;;;;;;5.78;2.20;;;16.20;99.90;;;;;;5033011;28;20050;-59
2022/10/13 10:31:17;;;;;;;8.15;2.35;;;16.30;99.90;;;;;;5033304;28;20500;-59
2022/10/13 10:33:44;;;;;;;6.80;2.42;;;16.40;99.90;;;;;;5033588;28;20103;-59
2022/10/13 10:36:15;;;;;;;4.57;1.90;;;16.50;99.90;;;;;;5033612;28;20041;-60
2022/10/13 10:38:42;;;;;;;3.22;2.05;;;16.60;99.90;;;;;;5033458;28;20395;-59
2022/10/13 10:41:09;;;;;;;3.67;2.08;;;16.60;99.90;;;;;;5033125;28;20038;-59
2022/10/13 10:43:40;;;;;;;4.20;2.10;;;16.70;99.90;;;;;;5033064;28;20065;-59
2022/10/13 10:46:10;;;;;;;4.00;1.77;;;16.70;99.90;;;;;;5033364;28;20033;-59
2022/10/13 10:48:37;;;;;;;4.28;2.00;;;16.70;99.90;;;;;;5034140;28;20037;-59
2022/10/13 10:51:04;;;;;;;4.63;1.52;;;16.80;99.90;;;;;;5036877;28;20037;-59
2022/10/13 10:53:30;;;;;;;2.97;1.50;;;16.90;99.90;;;;;;5036832;28;20534;-60
2022/10/13 10:55:59;;;;;;;3.03;1.48;;;16.90;99.90;;;;;;5019603;28;20404;-57
2022/10/13 10:58:26;;;;;;;4.15;1.38;;;16.90;99.90;;;;;;5036811;28;20121;-60
2022/10/13 11:00:52;;;;;;;4.80;2.00;;;16.90;99.90;;;;;;5036539;28;20045;-59
2022/10/13 11:03:19;;;;;;;4.60;1.85;;;17.00;99.90;;;;;;5036987;28;20057;-59
2022/10/13 11:05:46;;;;;;;3.88;1.77;;;17.10;99.90;;;;;;5036824;28;20111;-56
2022/10/13 11:08:12;;;;;;;7.30;1.80;;;17.20;99.90;;;;;;5036553;28;20092;-60
2022/10/13 11:10:39;;;;;;;3.95;1.80;;;17.30;99.90;;;;;;5036348;28;20099;-55
2022/10/13 11:13:06;;;;;;;3.22;1.85;;;17.30;99.90;;;;;;5036402;28;20111;-59
2022/10/13 11:15:33;;;;;;;9.98;4.35;;;17.30;99.90;;;;;;5036422;28;20052;-60
2022/10/13 11:18:00;;;;;;;8.75;5.90;;;17.20;99.90;;;;;;5019315;28;20211;-59
2022/10/13 11:20:27;;;;;;;7.15;4.95;;;17.10;99.90;;;;;;5036359;28;20080;-60
2022/10/13 11:22:53;;;;;;;7.68;5.75;;;17.00;99.90;;;;;;5036095;28;20396;-60
2022/10/13 11:25:20;;;;;;;10.65;5.28;;;16.80;99.90;;;;;;5035958;28;20041;-60
2022/10/13 11:27:47;;;;;;;7.95;4.90;;;16.80;99.90;;;;;;5036217;28;20121;-60
2022/10/13 11:30:14;;;;;;;8.30;4.50;;;16.60;99.90;;;;;;5036173;28;20057;-57
2022/10/13 11:32:41;;;;;;;9.85;5.97;;;16.50;99.90;;;;;;5018275;28;20039;-59
2022/10/13 11:35:08;;;;;;;8.02;5.03;;;16.50;99.90;;;;;;5036099;28;20045;-60
2022/10/13 11:37:34;;;;;;;7.45;5.00;;;16.50;99.90;;;;;;5036097;28;20037;-60
2022/10/13 11:40:03;;;;;;;7.65;4.68;;;16.50;99.90;;;;;;5035944;28;20045;-59
2022/10/13 11:42:30;;;;;;;9.40;5.22;;;16.40;99.90;;;;;;5036340;28;20128;-58
2022/10/13 11:44:56;;;;;;;8.63;4.82;;;16.30;99.90;;;;;;5035653;28;20076;-58
2022/10/13 11:47:24;;;;;;;6.75;4.13;;;16.30;99.90;;;;;;5036388;28;20037;-59
2022/10/13 11:49:51;;;;;;;7.45;4.15;;;16.30;99.90;;;;;;5018240;28;20037;-59
2022/10/13 11:52:18;;;;;;;6.70;4.60;;;16.30;99.90;;;;;;5035626;28;20045;-60
2022/10/13 11:54:45;;;;;;;7.57;4.82;;;16.20;99.90;;;;;;5035619;28;20045;-60
2022/10/13 11:57:11;;;;;;;7.65;4.68;;;16.20;99.90;;;;;;5035488;28;20088;-60
2022/10/13 11:59:38;;;;;;;11.07;5.22;;;16.20;99.90;;;;;;5035157;28;20061;-59
2022/10/13 12:02:05;;;;;;;7.90;4.43;;;16.20;99.90;;;;;;5035388;28;20045;-57
2022/10/13 12:04:31;;;;;;;8.07;4.10;;;16.20;99.90;;;;;;5035718;28;20111;-59
2022/10/13 12:06:58;;;;;;;6.90;4.03;;;16.20;99.90;;;;;;5035592;28;20107;-60
2022/10/13 12:09:25;;;;;;;7.63;4.38;;;16.20;99.90;;;;;;5017337;28;20050;-60
2022/10/13 12:11:52;;;;;;;6.63;3.45;;;16.10;99.90;;;;;;5035633;28;20041;-60
2022/10/13 12:14:18;;;;;;;9.85;4.18;;;16.10;99.90;;;;;;5035122;28;20042;-59
2022/10/13 12:16:45;;;;;;;6.82;3.55;;;16.10;99.90;;;;;;5035646;28;20046;-59
2022/10/13 12:19:12;;;;;;;7.60;3.97;;;16.10;99.90;;;;;;5035086;28;20045;-58
2022/10/13 12:21:38;;;;;;;6.63;3.33;;;16.20;99.90;;;;;;5035362;28;20496;-59
2022/10/13 12:24:05;;;;;;;8.20;3.78;;;16.20;99.90;;;;;;5035229;28;20049;-59
2022/10/13 12:26:32;;;;;;;11.38;3.60;;;16.20;99.90;;;;;;5034950;28;20112;-58
2022/10/13 12:28:58;;;;;;;8.18;3.70;;;16.20;99.90;;;;;;5034647;28;20061;-59
2022/10/13 12:31:25;;;;;;;6.90;3.67;;;16.30;99.90;;;;;;5017062;28;20064;-56
2022/10/13 12:33:52;;;;;;;6.63;3.40;;;16.30;99.90;;;;;;5034845;28;20099;-59
2022/10/13 12:36:19;;;;;;;9.90;2.90;;;16.30;99.90;;;;;;5035045;28;20080;-58
2022/10/13 12:38:46;;;;;;;16.80;4.13;;;16.30;99.90;;;;;;5035147;28;20045;-58
2022/10/13 12:41:12;;;;;;;6.45;2.40;;;16.40;99.90;;;;;;5035157;28;20100;-59
2022/10/13 12:43:39;;;;;;;5.53;2.47;;;16.50;99.90;;;;;;5034472;28;20396;-58